Cohoes, NY (12047)

5:08 PM EDT on September 28, 2016 (GMT -0400)
Cohoes Hill | | Change Station

Elev 246 ft 42.77 °N, 73.71 °W | Updated 1 second ago

Scattered Clouds
Scattered Clouds
67.8 °F
Feels Like 67.8 °F
N
3.0
Wind Variable Wind from ENE

Today
High -- | Low -- °F
--% Chance of Precip.
Yesterday
High -- | Low -- °F
Precip. -- in
Pressure 30.21 in
Visibility 10.0 miles
Clouds Scattered Clouds 4400 ft
Scattered Clouds 20000 ft
Dew Point 53 °F
Humidity 60%
Rainfall 0.00 in
Snow Depth Not available.
6:49 AM 6:40 PM
Waning Crescent, 4% visible
METAR KALB 282051Z 10006KT 10SM SCT044 SCT200 18/10 A3021 RMK AO2 SLP230 T01830100 51009
Pressure 30.21 in
Visibility 10.0 miles
Clouds Scattered Clouds 4400 ft
Scattered Clouds 20000 ft
Dew Point 53 °F
Humidity 60%
Rainfall 0.00 in
Snow Depth Not available.
6:49 AM 6:40 PM
Waning Crescent, 4% visible
METAR KALB 282051Z 10006KT 10SM SCT044 SCT200 18/10 A3021 RMK AO2 SLP230 T01830100 51009

10-Day Weather Forecast

Almanac

Astronomy

Sep. 28, 2016 Rise Set
Actual Time
Civil Twilight
Nautical Twilight
Astronomical Twilight
Moon
Length of Visible Light
Length of Day
Tomorrow will be .
, % of the Moon is Illuminated

Today's Extremes

State Highs State Lows

Community

WunderPhotos

Upload Photos

1,942,325 photos uploaded!

WunderBlog® & News

Nearby

Air Quality

  Air Quality AQ Index Pollutant
Not available.

Snow Depth

Station Depth Elevation

Earthquake Activity

City Distance Mag. Time & Date
Minimum magnitude displayed is 2.5.

Coastal Water Temperatures

Place Temperature

Stations

Nearby Weather Stations

Station Location Temp. Windchill Dew Point Humidity Wind Precip. Elev Updated Type
                   

Watches & Warnings

There are currently no watches in effect.